This is the latest recevied weather packets stored in our database for station/object KB3YCK-2. If no packets are shown the sender has not sent any weather packets the latest 10 day(s).
| Time | Temp. | Humidity | Pressure | Rain* | Wind** | Luminosity | Snow |
|---|---|---|---|---|---|---|---|
| 1777665605 | 17.78° C | 65% | 1012 hPa | 0 mm | - | 302 W/m² | - |
| 1777665002 | 18.33° C | 64% | 1012.2 hPa | 0 mm | - | 700 W/m² | - |
| 1777664704 | 18.33° C | 63% | 1012.2 hPa | 0 mm | - | 708 W/m² | - |
| 1777659304 | 17.22° C | 66% | 1013 hPa | 0 mm | - | 761 W/m² | - |
| 1777659003 | 17.22° C | 66% | 1013 hPa | 0 mm | - | 617 W/m² | - |
| 1777658408 | 16.67° C | 62% | 1012.9 hPa | 0 mm | - | 840 W/m² | - |
| 1777657503 | 16.11° C | 60% | 1012.9 hPa | 0 mm | - | 925 W/m² | - |
| 1777655103 | 17.22° C | 66% | 1013.3 hPa | 0 mm | - | 900 W/m² | - |
| 1777653606 | 15.56° C | 68% | 1013.5 hPa | 0 mm | - | 891 W/m² | - |
| 1777652703 | 15.56° C | 67% | 1013.7 hPa | 0 mm | - | 904 W/m² | - |
| 1777650013 | 14.44° C | 65% | 1014.4 hPa | 0 mm | - | 777 W/m² | - |
| 1777649107 | 14.44° C | 65% | 1014.6 hPa | 0 mm | - | 802 W/m² | - |
| 1777643706 | 11.67° C | 73% | 1015.1 hPa | 0 mm | - | 649 W/m² | - |
| 1777643407 | 11.67° C | 74% | 1015 hPa | 0 mm | - | 640 W/m² | - |
| 1777643111 | 11.67° C | 74% | 1015.1 hPa | 0 mm | - | 621 W/m² | - |
| 1777641316 | 8.89° C | 77% | 1015.2 hPa | 0 mm | - | 248 W/m² | - |
| 1777639208 | 7.78° C | 81% | 1015 hPa | 0 mm | - | 42 W/m² | - |
| 1777638912 | 7.78° C | 82% | 1015 hPa | 0 mm | - | 39 W/m² | - |
| 1777638304 | 7.22° C | 83% | 1015 hPa | 0 mm | - | 40 W/m² | - |
| 1777637728 | 6.67° C | 84% | 1015.2 hPa | 0 mm | - | 44 W/m² | - |
| 1777637109 | 6.11° C | 84% | 1015.2 hPa | 0 mm | - | 40 W/m² | - |
| 1777635916 | 5° C | 86% | 1015.2 hPa | 0 mm | - | 49 W/m² | - |
| 1777634708 | 4.44° C | 86% | 1015 hPa | 0 mm | - | 25 W/m² | - |
| 1777634411 | 3.89° C | 87% | 1014.9 hPa | 0 mm | - | 21 W/m² | - |
| 1777632909 | 3.89° C | 86% | 1014.8 hPa | 0 mm | - | 21 W/m² | - |
* Rain latest hour (hover to see other rain measurements)
** Current wind speed in m/s (hover to see current wind gust speed)